createdAt,value
2023-04-01T00:01:41.673Z,5.13
2023-04-01T00:03:45.186Z,6.80
2023-04-01T00:05:48.915Z,5.95
2023-04-01T00:07:52.282Z,5.50
2023-04-01T00:09:57.216Z,5.50
2023-04-01T00:12:03.066Z,5.78
2023-04-01T00:14:06.794Z,6.35
2023-04-01T00:16:21.032Z,6.47
2023-04-01T00:18:28.100Z,4.40
2023-04-01T00:20:31.580Z,5.20
2023-04-01T00:22:35.028Z,6.50
2023-04-01T00:28:50.782Z,3.22
2023-04-01T00:30:54.784Z,10.07
2023-04-01T00:32:58.383Z,5.43
2023-04-01T00:35:02.972Z,4.93
2023-04-01T00:37:56.191Z,4.75
2023-04-01T00:40:00.208Z,5.47
2023-04-01T00:42:03.901Z,4.05
2023-04-01T00:44:22.110Z,3.42
2023-04-01T00:46:25.720Z,5.28
2023-04-01T00:48:32.957Z,6.07
2023-04-01T00:50:39.946Z,3.90
2023-04-01T00:52:43.660Z,4.68
2023-04-01T00:54:48.173Z,7.20
2023-04-01T00:56:56.775Z,5.82
2023-04-01T00:59:01.723Z,5.40
2023-04-01T01:01:06.967Z,4.13
2023-04-01T01:03:10.704Z,7.47
2023-04-01T01:05:48.137Z,4.80
2023-04-01T01:07:55.631Z,6.07
2023-04-01T01:10:02.466Z,4.47
2023-04-01T01:12:10.237Z,3.13
2023-04-01T01:14:29.185Z,4.10
2023-04-01T01:16:35.276Z,6.88
2023-04-01T01:18:40.478Z,4.53
2023-04-01T01:21:07.070Z,6.03
2023-04-01T01:24:02.320Z,4.47
2023-04-01T01:26:42.743Z,5.85
2023-04-01T01:28:50.340Z,6.05
2023-04-01T01:30:57.791Z,4.30
2023-04-01T01:33:16.341Z,2.60
2023-04-01T01:35:24.763Z,5.15
2023-04-01T01:45:19.666Z,4.00
2023-04-01T01:47:23.402Z,5.38
2023-04-01T01:49:26.715Z,2.92
2023-04-01T01:51:44.983Z,4.78
2023-04-01T01:53:48.523Z,4.63
2023-04-01T01:55:53.081Z,4.00
2023-04-01T01:57:58.864Z,5.72
2023-04-01T02:00:04.311Z,4.57
2023-04-01T02:02:09.216Z,7.28
2023-04-01T02:08:36.609Z,4.93
2023-04-01T02:10:41.792Z,3.33
2023-04-01T02:12:45.187Z,4.63
2023-04-01T02:14:50.022Z,4.03
2023-04-01T02:16:55.754Z,3.95
2023-04-01T02:18:59.162Z,5.05
2023-04-01T02:21:02.670Z,5.25
2023-04-01T02:23:06.149Z,5.22
2023-04-01T02:25:12.911Z,4.22
2023-04-01T02:27:16.415Z,7.32
2023-04-01T02:29:21.345Z,6.40
2023-04-01T02:31:24.819Z,5.18
2023-04-01T02:36:54.478Z,6.15
2023-04-01T02:38:58.051Z,4.00
2023-04-01T02:41:03.168Z,3.40
2023-04-01T02:44:17.856Z,4.75
2023-04-01T02:46:21.445Z,3.80
2023-04-01T02:48:24.892Z,4.63
2023-04-01T02:50:28.300Z,4.60
2023-04-01T02:52:32.571Z,3.28
2023-04-01T02:54:35.852Z,4.63
2023-04-01T03:07:26.153Z,4.15
2023-04-01T03:09:31.388Z,4.35
2023-04-01T03:11:34.862Z,3.60
2023-04-01T03:13:38.282Z,6.53
2023-04-01T03:15:43.758Z,4.72
2023-04-01T03:17:47.919Z,7.03
2023-04-01T03:19:57.659Z,7.72
2023-04-01T03:22:01.040Z,4.47
2023-04-01T03:24:05.978Z,2.80
2023-04-01T03:26:15.381Z,3.47
2023-04-01T03:28:18.645Z,2.90
2023-04-01T03:30:22.160Z,3.85
2023-04-01T03:35:53.362Z,5.43
2023-04-01T03:37:56.961Z,3.40
2023-04-01T03:40:02.093Z,4.43
2023-04-01T03:42:07.949Z,5.50
2023-04-01T03:44:11.268Z,4.00
2023-04-01T03:46:19.099Z,2.90
2023-04-01T03:49:17.840Z,6.30
2023-04-01T03:51:22.107Z,4.68
2023-04-01T03:53:25.912Z,3.45
2023-04-01T03:55:31.167Z,2.67
2023-04-01T03:57:40.534Z,3.15
2023-04-01T03:59:44.233Z,6.47
2023-04-01T04:01:49.250Z,3.55
2023-04-01T04:03:53.584Z,2.92
2023-04-01T04:05:58.133Z,2.72
2023-04-01T04:08:01.810Z,5.53
2023-04-01T04:10:06.241Z,3.00
2023-04-01T04:12:11.363Z,7.72
2023-04-01T04:14:15.150Z,2.47
2023-04-01T04:16:19.225Z,3.40
2023-04-01T04:18:22.936Z,6.35
2023-04-01T04:20:26.868Z,4.05
2023-04-01T04:22:30.429Z,5.35
2023-04-01T04:27:51.627Z,4.65
2023-04-01T04:29:55.459Z,4.07
2023-04-01T04:31:59.546Z,1.98
2023-04-01T04:34:03.528Z,2.47
2023-04-01T04:36:08.009Z,3.13
2023-04-01T04:38:11.597Z,6.10
2023-04-01T04:40:15.780Z,5.90
2023-04-01T04:42:19.334Z,3.78
2023-04-01T04:44:24.928Z,2.53
2023-04-01T04:46:28.712Z,3.92
2023-04-01T04:48:32.457Z,2.70
2023-04-01T04:50:35.938Z,4.90
2023-04-01T04:52:50.187Z,3.50
2023-04-01T04:54:53.824Z,3.80
2023-04-01T04:56:57.985Z,3.45
2023-04-01T04:59:02.077Z,4.65
2023-04-01T05:01:11.032Z,4.55
2023-04-01T05:03:15.564Z,4.32
2023-04-01T05:05:19.866Z,2.90
2023-04-01T05:07:24.002Z,3.20
2023-04-01T05:09:27.960Z,4.20
2023-04-01T05:11:31.640Z,6.35
2023-04-01T05:13:35.514Z,5.90
2023-04-01T05:15:39.608Z,6.47
2023-04-01T05:17:44.717Z,3.85
2023-04-01T05:19:48.438Z,3.95
2023-04-01T05:21:52.259Z,5.40
2023-04-01T05:23:56.230Z,4.65
2023-04-01T05:25:59.835Z,4.07
2023-04-01T05:28:07.110Z,5.00
2023-04-01T05:30:12.519Z,5.32
2023-04-01T05:32:16.098Z,7.38
2023-04-01T05:34:21.141Z,5.77
2023-04-01T05:36:24.577Z,4.25
2023-04-01T05:38:28.066Z,4.10
2023-04-01T05:49:26.942Z,2.72
2023-04-01T05:51:32.198Z,4.63
2023-04-01T05:53:36.065Z,4.90
2023-04-01T05:55:39.798Z,1.70
2023-04-01T05:57:49.512Z,3.53
2023-04-01T05:59:53.184Z,3.78
2023-04-01T06:02:00.234Z,4.10
2023-04-01T06:04:04.059Z,4.03
2023-04-01T06:06:14.818Z,2.35
2023-04-01T06:08:20.339Z,2.03
2023-04-01T06:10:24.858Z,2.65
2023-04-01T06:12:40.720Z,3.75
2023-04-01T06:14:47.069Z,2.80
2023-04-01T06:17:05.712Z,2.35
2023-04-01T06:19:15.785Z,2.75
2023-04-01T06:21:55.685Z,3.37
2023-04-01T06:24:02.323Z,2.55
2023-04-01T06:26:17.565Z,3.93
2023-04-01T06:28:57.175Z,4.13
2023-04-01T06:31:04.329Z,4.20
2023-04-01T06:33:18.066Z,1.35
2023-04-01T06:35:35.178Z,2.17
2023-04-01T06:38:11.996Z,2.57
2023-04-01T06:40:29.685Z,2.78
2023-04-01T06:42:39.041Z,1.65
2023-04-01T06:45:03.757Z,2.53
2023-04-01T06:47:17.562Z,3.05
2023-04-01T06:49:34.633Z,2.90
2023-04-01T06:51:43.848Z,2.53
2023-04-01T06:53:52.147Z,3.38
2023-04-01T06:56:08.809Z,1.80
2023-04-01T06:58:16.159Z,3.45
2023-04-01T07:00:24.584Z,2.30
2023-04-01T07:02:31.873Z,2.42
2023-04-01T07:04:36.520Z,2.03
2023-04-01T07:06:42.171Z,1.30
2023-04-01T07:08:47.555Z,2.15
2023-04-01T07:10:53.995Z,2.78
2023-04-01T07:12:58.706Z,2.33
2023-04-01T07:15:04.596Z,3.40
2023-04-01T07:17:12.642Z,1.02
2023-04-01T07:19:19.048Z,3.58
2023-04-01T07:21:28.684Z,2.15
2023-04-01T07:23:34.585Z,1.10
2023-04-01T07:25:39.498Z,2.70
2023-04-01T07:27:46.070Z,1.42
2023-04-01T07:29:49.719Z,1.42
2023-04-01T07:32:10.233Z,1.65
2023-04-01T07:34:16.636Z,2.55
2023-04-01T07:36:22.918Z,1.42
2023-04-01T07:38:30.729Z,2.95
2023-04-01T07:40:38.382Z,3.20
2023-04-01T07:42:51.491Z,1.05
2023-04-01T07:44:57.708Z,1.67
2023-04-01T07:47:23.153Z,1.55
2023-04-01T07:49:31.730Z,1.23
2023-04-01T07:51:39.750Z,1.25
2023-04-01T07:53:52.299Z,1.00
2023-04-01T07:55:59.582Z,0.95
2023-04-01T07:58:06.931Z,2.78
2023-04-01T08:00:13.443Z,2.47
2023-04-01T08:02:23.224Z,3.60
2023-04-01T08:04:31.023Z,2.00
2023-04-01T08:10:57.000Z,3.08
2023-04-01T08:13:06.502Z,1.13
2023-04-01T08:15:15.513Z,0.70
2023-04-01T08:17:21.753Z,2.00
2023-04-01T08:19:53.229Z,0.75
2023-04-01T08:21:58.239Z,2.05
2023-04-01T08:24:08.086Z,0.82
2023-04-01T08:26:13.166Z,1.85
2023-04-01T08:28:22.672Z,2.38
2023-04-01T08:30:26.964Z,0.65
2023-04-01T08:32:32.757Z,2.97
2023-04-01T08:34:38.510Z,0.85
2023-04-01T08:36:50.671Z,2.63
2023-04-01T08:38:55.677Z,1.85
2023-04-01T08:41:01.985Z,2.42
2023-04-01T08:43:09.687Z,1.25
2023-04-01T08:45:47.642Z,0.98
2023-04-01T08:48:09.924Z,1.30
2023-04-01T08:50:44.177Z,0.63
2023-04-01T08:52:48.457Z,1.10
2023-04-01T08:55:19.029Z,1.40
2023-04-01T08:58:10.063Z,2.67
2023-04-01T09:00:21.314Z,1.05
2023-04-01T09:03:08.776Z,1.35
2023-04-01T09:05:30.319Z,1.42
2023-04-01T09:07:38.605Z,1.92
2023-04-01T09:10:14.574Z,2.00
2023-04-01T09:12:45.462Z,0.68
2023-04-01T09:17:30.718Z,1.17
2023-04-01T09:19:39.841Z,1.25
2023-04-01T09:21:52.025Z,1.02
2023-04-01T09:24:41.081Z,0.60
2023-04-01T09:26:52.491Z,1.55
2023-04-01T09:28:58.160Z,1.52
2023-04-01T09:31:26.186Z,2.45
2023-04-01T09:34:08.854Z,0.90
2023-04-01T09:36:16.024Z,1.00
2023-04-01T09:38:31.045Z,1.08
2023-04-01T09:40:39.627Z,1.23
2023-04-01T09:42:58.219Z,1.00
2023-04-01T09:45:02.139Z,0.60
2023-04-01T09:47:16.181Z,1.40
2023-04-01T09:49:43.588Z,0.77
2023-04-01T09:51:53.233Z,1.67
2023-04-01T09:54:06.954Z,0.65
2023-04-01T09:57:02.577Z,1.85
2023-04-01T09:59:39.560Z,1.33
2023-04-01T10:01:48.663Z,0.73
2023-04-01T10:04:34.358Z,1.63
2023-04-01T10:07:07.501Z,1.42
2023-04-01T10:09:32.885Z,1.55
2023-04-01T10:12:21.266Z,1.00
2023-04-01T10:15:06.568Z,2.80
2023-04-01T10:17:52.404Z,3.03
2023-04-01T10:20:27.880Z,1.20
2023-04-01T10:22:54.305Z,0.95
2023-04-01T10:25:25.129Z,1.10
2023-04-01T10:27:53.904Z,2.28
2023-04-01T10:30:35.369Z,0.60
2023-04-01T10:33:16.496Z,1.85
2023-04-01T10:35:44.787Z,1.35
2023-04-01T10:40:46.609Z,1.38
2023-04-01T10:43:13.692Z,1.10
2023-04-01T10:45:59.056Z,0.85
2023-04-01T10:48:25.667Z,1.70
2023-04-01T10:50:55.796Z,1.00
2023-04-01T10:53:28.943Z,2.15
2023-04-01T10:55:40.215Z,0.88
2023-04-01T10:58:07.325Z,1.27
2023-04-01T11:00:51.036Z,0.80
2023-04-01T11:03:19.433Z,0.68
2023-04-01T11:06:10.978Z,1.52
2023-04-01T11:08:43.560Z,0.47
2023-04-01T11:11:27.464Z,1.08
2023-04-01T11:13:48.660Z,1.50
2023-04-01T11:16:10.038Z,0.85
2023-04-01T11:18:56.399Z,1.25
2023-04-01T11:21:28.624Z,1.63
2023-04-01T11:24:05.107Z,0.50
2023-04-01T11:26:11.272Z,0.57
2023-04-01T11:28:42.020Z,1.35
2023-04-01T11:30:57.539Z,0.50
2023-04-01T11:33:05.141Z,1.98
2023-04-01T11:35:39.062Z,1.20
2023-04-01T11:37:45.016Z,0.90
2023-04-01T11:39:53.029Z,0.73
2023-04-01T11:42:02.361Z,0.82
2023-04-01T11:46:19.179Z,0.50
2023-04-01T11:48:40.075Z,0.50
2023-04-01T11:50:53.368Z,1.98
2023-04-01T11:53:17.112Z,1.27
2023-04-01T11:55:40.058Z,0.82
2023-04-01T11:57:54.230Z,0.43
2023-04-01T12:00:03.495Z,0.60
2023-04-01T12:02:10.986Z,0.75
2023-04-01T12:04:38.264Z,2.13
2023-04-01T12:06:44.700Z,1.15
2023-04-01T12:09:01.225Z,1.67
2023-04-01T12:11:09.113Z,1.10
2023-04-01T12:13:23.276Z,1.10
2023-04-01T12:15:38.190Z,0.98
2023-04-01T12:17:45.154Z,0.68
2023-04-01T12:19:54.324Z,0.70
2023-04-01T12:22:07.179Z,1.17
2023-04-01T12:24:37.027Z,0.55
2023-04-01T12:26:59.276Z,1.13
2023-04-01T12:29:15.601Z,0.50
2023-04-01T12:31:27.341Z,0.75
2023-04-01T12:33:55.916Z,0.65
2023-04-01T12:36:08.623Z,0.70
2023-04-01T12:38:21.173Z,1.05
2023-04-01T12:41:08.770Z,1.00
2023-04-01T12:43:22.544Z,0.52
2023-04-01T12:45:31.589Z,0.60
2023-04-01T12:48:14.924Z,1.30
2023-04-01T12:50:39.918Z,0.60
2023-04-01T12:52:52.569Z,1.13
2023-04-01T12:55:41.414Z,0.32
2023-04-01T12:58:08.114Z,0.80
2023-04-01T13:00:29.853Z,0.60
2023-04-01T13:02:42.727Z,0.63
2023-04-01T13:05:04.297Z,0.63
2023-04-01T13:07:32.908Z,0.68
2023-04-01T13:09:42.107Z,1.45
2023-04-01T13:11:53.118Z,0.52
2023-04-01T13:15:58.149Z,1.38
2023-04-01T13:18:05.802Z,0.70
2023-04-01T13:22:35.723Z,0.82
2023-04-01T13:24:49.498Z,3.10
2023-04-01T13:26:57.519Z,2.05
2023-04-01T13:29:03.951Z,1.60
2023-04-01T13:31:10.394Z,1.58
2023-04-01T13:33:17.564Z,0.90
2023-04-01T13:35:26.210Z,0.70
2023-04-01T13:37:37.250Z,0.82
2023-04-01T13:39:57.949Z,0.50
2023-04-01T13:42:14.927Z,1.58
2023-04-01T13:44:20.131Z,1.38
2023-04-01T13:46:41.862Z,0.40
2023-04-01T13:49:10.854Z,0.40
2023-04-01T13:51:32.505Z,0.68
2023-04-01T13:53:49.116Z,0.68
2023-04-01T13:55:58.281Z,0.80
2023-04-01T13:58:27.020Z,0.50
2023-04-01T14:00:48.141Z,0.50
2023-04-01T14:03:03.869Z,0.60
2023-04-01T14:05:17.827Z,0.32
2023-04-01T14:07:40.403Z,0.93
2023-04-01T14:09:48.387Z,0.68
2023-04-01T14:12:00.284Z,0.80
2023-04-01T14:14:07.794Z,2.70
2023-04-01T14:16:41.264Z,0.45
2023-04-01T14:18:54.723Z,0.65
2023-04-01T14:21:03.447Z,1.38
2023-04-01T14:23:32.930Z,0.50
2023-04-01T14:25:57.806Z,0.52
2023-04-01T14:28:06.319Z,0.70
2023-04-01T14:30:35.470Z,0.73
2023-04-01T14:32:43.120Z,1.02
2023-04-01T14:34:57.245Z,0.82
2023-04-01T14:37:14.336Z,0.40
2023-04-01T14:39:38.456Z,0.50
2023-04-01T14:41:46.011Z,0.93
2023-04-01T14:44:11.809Z,0.63
2023-04-01T14:46:30.124Z,1.38
2023-04-01T14:48:34.503Z,0.73
2023-04-01T14:50:44.179Z,0.47
2023-04-01T14:53:00.006Z,0.50
2023-04-01T14:55:04.594Z,1.05
2023-04-01T14:57:14.378Z,0.70
2023-04-01T14:59:28.149Z,1.48
2023-04-01T15:01:43.592Z,0.77
2023-04-01T15:03:52.388Z,0.57
2023-04-01T15:05:59.184Z,0.40
2023-04-01T15:08:17.893Z,0.95
2023-04-01T15:10:55.235Z,1.00
2023-04-01T15:13:01.118Z,0.88
2023-04-01T15:15:20.174Z,1.65
2023-04-01T15:17:40.647Z,3.00
2023-04-01T15:20:01.254Z,0.45
2023-04-01T15:22:30.307Z,1.48
2023-04-01T15:24:42.409Z,0.55
2023-04-01T15:26:56.518Z,0.43
2023-04-01T15:29:11.313Z,0.68
2023-04-01T15:31:17.407Z,1.17
2023-04-01T15:33:46.324Z,0.75
2023-04-01T15:35:52.164Z,0.63
2023-04-01T15:37:57.649Z,0.90
2023-04-01T15:40:04.444Z,1.20
2023-04-01T15:42:31.172Z,2.33
2023-04-01T15:45:13.162Z,1.20
2023-04-01T15:47:36.928Z,0.50
2023-04-01T15:49:41.254Z,0.55
2023-04-01T15:51:51.231Z,1.25
2023-04-01T15:54:17.589Z,0.63
2023-04-01T15:56:52.371Z,0.50
2023-04-01T15:59:07.775Z,0.75
2023-04-01T16:01:23.422Z,1.73
2023-04-01T16:03:41.076Z,2.20
2023-04-01T16:05:58.168Z,1.70
2023-04-01T16:08:40.828Z,1.80
2023-04-01T16:11:01.757Z,2.05
2023-04-01T16:13:14.703Z,2.00
2023-04-01T16:15:23.834Z,0.63
2023-04-01T16:17:40.992Z,0.85
2023-04-01T16:19:53.560Z,1.95
2023-04-01T16:22:02.096Z,1.30
2023-04-01T16:24:12.140Z,1.35
2023-04-01T16:26:18.143Z,0.98
2023-04-01T16:28:42.115Z,0.40
2023-04-01T16:30:48.411Z,0.50
2023-04-01T16:32:52.958Z,2.13
2023-04-01T16:35:07.093Z,0.50
2023-04-01T16:37:14.233Z,0.80
2023-04-01T16:39:32.327Z,1.00
2023-04-01T16:41:37.395Z,0.85
2023-04-01T16:43:45.061Z,0.85
2023-04-01T16:45:50.918Z,1.05
2023-04-01T16:47:55.713Z,0.90
2023-04-01T16:50:02.837Z,2.35
2023-04-01T16:52:37.937Z,1.00
2023-04-01T16:54:44.062Z,0.68
2023-04-01T16:56:50.818Z,0.90
2023-04-01T16:59:01.111Z,1.10
2023-04-01T17:01:07.080Z,0.75
2023-04-01T17:03:19.175Z,0.98
2023-04-01T17:05:24.150Z,2.60
2023-04-01T17:07:32.337Z,0.75
2023-04-01T17:09:46.248Z,1.33
2023-04-01T17:11:52.432Z,0.68
2023-04-01T17:14:01.766Z,0.55
2023-04-01T17:16:20.119Z,0.70
2023-04-01T17:18:25.766Z,1.13
2023-04-01T17:20:34.525Z,1.08
2023-04-01T17:22:42.348Z,1.08
2023-04-01T17:24:54.111Z,0.93
2023-04-01T17:27:03.707Z,1.38
2023-04-01T17:29:09.240Z,1.23
2023-04-01T17:31:15.614Z,2.10
2023-04-01T17:33:29.807Z,0.75
2023-04-01T17:35:35.650Z,0.55
2023-04-01T17:40:10.001Z,1.13
2023-04-01T17:42:17.552Z,1.48
2023-04-01T17:44:31.331Z,1.15
2023-04-01T17:46:41.149Z,0.70
2023-04-01T17:48:46.626Z,0.88
2023-04-01T17:50:57.529Z,1.05
2023-04-01T17:53:15.920Z,0.80
2023-04-01T17:55:43.587Z,0.60
2023-04-01T17:57:49.079Z,1.25
2023-04-01T17:59:55.714Z,1.13
2023-04-01T18:02:03.478Z,1.10
2023-04-01T18:04:19.142Z,1.58
2023-04-01T18:06:26.346Z,1.27
2023-04-01T18:08:46.058Z,1.23
2023-04-01T18:10:59.573Z,1.52
2023-04-01T18:13:26.422Z,0.98
2023-04-01T18:16:12.744Z,1.10
2023-04-01T18:18:28.818Z,1.30
2023-04-01T18:20:36.870Z,2.20
2023-04-01T18:22:45.882Z,1.15
2023-04-01T18:24:52.197Z,1.60
2023-04-01T18:27:04.397Z,1.70
2023-04-01T18:29:15.833Z,1.95
2023-04-01T18:31:20.612Z,2.15
2023-04-01T18:33:26.738Z,4.57
2023-04-01T18:35:32.022Z,3.08
2023-04-01T18:37:36.545Z,4.65
2023-04-01T18:39:42.767Z,6.82
2023-04-01T18:41:54.285Z,4.18
2023-04-01T18:44:04.155Z,2.65
2023-04-01T18:46:10.525Z,5.47
2023-04-01T18:48:18.250Z,3.80
2023-04-01T18:50:25.043Z,2.17
2023-04-01T18:52:29.914Z,6.78
2023-04-01T18:54:34.607Z,4.53
2023-04-01T18:57:02.016Z,2.70
2023-04-01T18:59:08.426Z,2.38
2023-04-01T19:01:19.044Z,4.45
2023-04-01T19:03:23.819Z,3.05
2023-04-01T19:05:31.813Z,3.20
2023-04-01T19:07:54.448Z,13.05
2023-04-01T19:09:57.918Z,20.08
2023-04-01T19:12:30.364Z,8.30
2023-04-01T19:14:41.506Z,8.63
2023-04-01T19:16:48.822Z,12.90
2023-04-01T19:19:06.066Z,8.00
2023-04-01T19:21:13.136Z,7.97
2023-04-01T19:23:42.648Z,25.08
2023-04-01T19:25:48.322Z,5.63
2023-04-01T19:27:53.729Z,11.77
2023-04-01T19:30:09.915Z,8.02
2023-04-01T19:32:18.850Z,21.58
2023-04-01T19:34:28.895Z,3.97
2023-04-01T19:36:34.125Z,3.47
2023-04-01T19:38:40.450Z,4.40
2023-04-01T19:41:04.101Z,2.38
2023-04-01T19:43:12.940Z,2.88
2023-04-01T19:45:25.739Z,3.33
2023-04-01T19:47:41.233Z,2.15
2023-04-01T19:49:50.243Z,2.72
2023-04-01T19:51:55.377Z,4.03
2023-04-01T19:54:23.497Z,2.15
2023-04-01T19:56:28.739Z,2.33
2023-04-01T19:58:36.086Z,2.08
2023-04-01T20:00:40.406Z,2.85
2023-04-01T20:03:03.560Z,2.63
2023-04-01T20:05:18.682Z,1.48
2023-04-01T20:07:23.772Z,3.15
2023-04-01T20:09:38.006Z,2.53
2023-04-01T20:11:47.866Z,1.75
2023-04-01T20:14:02.090Z,2.60
2023-04-01T20:16:06.884Z,2.08
2023-04-01T20:18:16.174Z,3.22
2023-04-01T20:20:22.849Z,2.38
2023-04-01T20:22:32.129Z,2.30
2023-04-01T20:24:37.682Z,1.50
2023-04-01T20:26:41.892Z,1.77
2023-04-01T20:29:17.625Z,2.28
2023-04-01T20:31:27.483Z,3.15
2023-04-01T20:33:55.691Z,2.35
2023-04-01T20:36:44.253Z,1.27
2023-04-01T20:39:25.422Z,1.40
2023-04-01T20:41:29.872Z,2.45
2023-04-01T20:43:43.512Z,1.33
2023-04-01T20:45:49.606Z,1.33
2023-04-01T20:48:23.627Z,2.28
2023-04-01T20:50:28.884Z,2.17
2023-04-01T20:52:37.637Z,1.80
2023-04-01T20:55:05.806Z,2.47
2023-04-01T20:57:17.817Z,2.22
2023-04-01T20:59:35.429Z,3.95
2023-04-01T21:01:43.513Z,1.50
2023-04-01T21:03:50.982Z,1.58
2023-04-01T21:06:20.760Z,2.15
2023-04-01T21:08:27.400Z,4.25
2023-04-01T21:12:55.711Z,1.77
2023-04-01T21:15:24.721Z,3.78
2023-04-01T21:17:36.627Z,2.22
2023-04-01T21:19:51.994Z,4.53
2023-04-01T21:22:29.408Z,2.15
2023-04-01T21:24:51.532Z,2.03
2023-04-01T21:26:56.750Z,2.90
2023-04-01T21:29:14.877Z,2.03
2023-04-01T21:31:46.861Z,1.98
2023-04-01T21:34:17.242Z,3.38
2023-04-01T21:36:28.230Z,3.35
2023-04-01T21:38:46.318Z,2.00
2023-04-01T21:53:21.956Z,1.98
2023-04-01T21:56:10.623Z,2.03
2023-04-01T21:59:06.758Z,2.58
2023-04-01T22:01:19.846Z,2.53
2023-04-01T22:04:02.379Z,2.78
2023-04-01T22:06:23.407Z,2.03
2023-04-01T22:08:53.740Z,2.20
2023-04-01T22:11:00.139Z,3.47
2023-04-01T22:13:11.059Z,2.17
2023-04-01T22:17:40.889Z,9.30
2023-04-01T22:19:51.196Z,7.22
2023-04-01T22:22:10.186Z,8.40
2023-04-01T22:24:27.627Z,13.93
2023-04-01T22:29:14.027Z,24.88
2023-04-01T22:31:18.751Z,6.45
2023-04-01T22:33:49.165Z,3.67
2023-04-01T22:36:04.165Z,2.42
2023-04-01T22:38:13.290Z,2.42
2023-04-01T22:40:37.392Z,1.85
2023-04-01T22:42:44.446Z,2.60
2023-04-01T22:45:01.904Z,2.17
2023-04-01T22:47:06.925Z,3.28
2023-04-01T22:49:11.989Z,2.47
2023-04-01T22:51:20.294Z,2.58
2023-04-01T22:53:37.605Z,2.75
2023-04-01T22:55:55.816Z,2.70
2023-04-01T22:58:01.671Z,2.97
2023-04-01T23:00:10.731Z,2.70
2023-04-01T23:02:16.320Z,2.67
2023-04-01T23:04:21.115Z,2.45
2023-04-01T23:12:13.078Z,4.43
2023-04-01T23:14:51.904Z,6.45
2023-04-01T23:19:25.447Z,2.88
2023-04-01T23:21:35.360Z,3.65
2023-04-01T23:24:01.317Z,2.25
2023-04-01T23:26:07.730Z,2.25
2023-04-01T23:28:35.360Z,2.38
2023-04-01T23:30:53.884Z,3.50
2023-04-01T23:33:27.065Z,2.88
2023-04-01T23:35:30.832Z,3.45
